Time;durP1;ratioP1;P1;durP2;ratioP2;P2;SDS_P1;SDS_P2;PMS_P1;PMS_P2;Temp;Humidity;BMP_temperature;BMP_pressure;BME280_temperature;BME280_humidity;BME280_pressure;Samples;Min_cycle;Max_cycle;Signal;HPM_P1;HPM_P2
2023/08/05 00:00:27;;;;;;;14.18;7.85;;;;;;;12.28;100.00;93013.34;2098945;28;20354;-83
2023/08/05 00:01:31;;;;;;;15.43;8.27;;;;;;;12.31;100.00;93010.56;2098789;28;20513;-83
2023/08/05 00:02:32;;;;;;;18.50;7.88;;;;;;;12.37;100.00;93018.06;2091133;28;20017;-83
2023/08/05 00:03:32;;;;;;;17.63;8.45;;;;;;;12.32;100.00;93017.41;2086915;28;20068;-84
2023/08/05 00:04:33;;;;;;;17.55;8.23;;;;;;;12.33;100.00;93026.19;2089742;28;20025;-84
2023/08/05 00:05:34;;;;;;;14.82;8.05;;;;;;;12.32;100.00;93020.09;2098211;28;20075;-84
2023/08/05 00:06:35;;;;;;;17.77;8.80;;;;;;;12.32;100.00;93022.78;2098374;28;20024;-83
2023/08/05 00:07:36;;;;;;;15.93;8.80;;;;;;;12.30;100.00;93029.75;2097804;28;20086;-84
2023/08/05 00:08:37;;;;;;;16.10;8.60;;;;;;;12.32;100.00;93025.44;2098547;28;20071;-85
2023/08/05 00:09:38;;;;;;;18.88;8.40;;;;;;;12.27;100.00;93017.94;2113282;28;20027;-83
2023/08/05 00:10:43;;;;;;;21.65;9.05;;;;;;;12.30;100.00;93019.03;2106567;28;20441;-83
2023/08/05 00:11:44;;;;;;;17.60;8.00;;;;;;;12.30;100.00;93019.03;2094861;28;20028;-84
2023/08/05 00:12:45;;;;;;;18.88;8.00;;;;;;;12.33;100.00;93023.53;2089752;28;20032;-85
2023/08/05 00:13:46;;;;;;;16.50;8.55;;;;;;;12.24;100.00;93020.72;2090139;28;20092;-84
2023/08/05 00:14:47;;;;;;;18.80;8.90;;;;;;;12.38;100.00;93022.22;2089523;28;20389;-83
2023/08/05 00:15:49;;;;;;;17.77;7.85;;;;;;;12.44;100.00;93018.59;2092639;28;20517;-83
2023/08/05 00:16:50;;;;;;;14.40;8.05;;;;;;;12.40;100.00;93022.56;2103873;28;20469;-83
2023/08/05 00:17:51;;;;;;;20.33;7.88;;;;;;;12.38;100.00;93019.56;2101616;28;20031;-83
2023/08/05 00:18:53;;;;;;;17.52;9.13;;;;;;;12.33;100.00;93023.53;2114182;28;20019;-83
2023/08/05 00:19:54;;;;;;;15.50;8.15;;;;;;;12.34;100.00;93017.00;2098166;28;20039;-84
2023/08/05 00:20:55;;;;;;;16.48;7.97;;;;;;;12.37;100.00;93020.75;2097750;28;20016;-83
2023/08/05 00:21:56;;;;;;;19.92;8.95;;;;;;;12.51;100.00;93018.41;2089528;28;20800;-84
2023/08/05 00:22:57;;;;;;;19.45;9.20;;;;;;;12.77;100.00;93013.72;2082932;28;20025;-83
2023/08/05 00:23:58;;;;;;;20.67;8.65;;;;;;;12.71;100.00;93015.47;2089808;28;20107;-83
2023/08/05 00:24:59;;;;;;;19.80;8.32;;;;;;;12.60;100.00;93013.13;2090025;28;20017;-84
2023/08/05 00:26:00;;;;;;;16.00;8.30;;;;;;;12.47;100.00;93004.34;2089428;28;20075;-83
2023/08/05 00:27:01;;;;;;;26.70;9.10;;;;;;;12.40;100.00;93001.13;2081901;28;20037;-83
2023/08/05 00:28:02;;;;;;;16.30;9.07;;;;;;;12.32;100.00;93003.25;2080461;28;20021;-83
2023/08/05 00:29:03;;;;;;;17.88;8.05;;;;;;;12.45;100.00;92997.91;2081319;28;20045;-83
2023/08/05 00:30:04;;;;;;;19.77;8.82;;;;;;;12.41;100.00;93007.97;2103835;28;20020;-83
2023/08/05 00:31:11;;;;;;;17.80;8.55;;;;;;;12.35;100.00;92999.72;2084774;28;20021;-84
2023/08/05 00:32:12;;;;;;;26.88;9.70;;;;;;;12.37;100.00;93001.97;2087796;28;20032;-86
2023/08/05 00:33:13;;;;;;;15.38;9.00;;;;;;;12.27;100.00;92995.75;2081894;28;20057;-84
2023/08/05 00:34:14;;;;;;;17.77;9.25;;;;;;;12.30;100.00;92994.91;2089537;28;20021;-84
2023/08/05 00:35:15;;;;;;;22.90;10.40;;;;;;;12.37;100.00;92996.63;2091627;28;20033;-83
2023/08/05 00:36:16;;;;;;;24.80;9.30;;;;;;;12.37;100.00;92997.38;2083213;28;20088;-83
2023/08/05 00:37:17;;;;;;;18.63;10.05;;;;;;;12.43;100.00;92992.22;2089500;28;20028;-84
2023/08/05 00:38:18;;;;;;;15.77;9.43;;;;;;;12.39;100.00;92988.91;2089817;28;20162;-85
2023/08/05 00:39:19;;;;;;;17.75;9.73;;;;;;;12.52;100.00;92989.66;2091836;28;20021;-84
2023/08/05 00:40:20;;;;;;;19.20;10.40;;;;;;;12.47;100.00;92982.91;2089802;28;20025;-85
2023/08/05 00:41:21;;;;;;;24.02;10.20;;;;;;;12.42;100.00;92986.09;2088929;28;20017;-84
2023/08/05 00:42:22;;;;;;;18.92;10.32;;;;;;;12.31;100.00;92986.44;2101928;28;20024;-83
2023/08/05 00:43:23;;;;;;;19.27;9.73;;;;;;;12.22;100.00;92989.00;2089493;28;20032;-84
2023/08/05 00:44:24;;;;;;;26.48;9.85;;;;;;;12.41;100.00;92986.53;2091798;28;20024;-83
2023/08/05 00:45:24;;;;;;;19.58;10.25;;;;;;;12.37;100.00;92980.53;2089765;28;20051;-84
2023/08/05 00:46:26;;;;;;;19.02;9.50;;;;;;;12.28;100.00;92986.53;2095761;28;20027;-83
2023/08/05 00:47:27;;;;;;;20.02;9.57;;;;;;;12.14;100.00;92990.41;2087171;28;20017;-84
2023/08/05 00:48:28;;;;;;;21.45;10.32;;;;;;;12.08;100.00;92981.41;2089760;28;20020;-83
2023/08/05 00:49:30;;;;;;;20.85;10.38;;;;;;;12.03;100.00;92979.25;2093059;28;20024;-83
2023/08/05 00:50:33;;;;;;;19.17;10.25;;;;;;;12.04;100.00;92983.44;2098014;28;20027;-83
2023/08/05 00:51:34;;;;;;;26.50;10.85;;;;;;;12.19;100.00;92981.81;2081684;28;20037;-83
2023/08/05 00:52:36;;;;;;;14.60;9.50;;;;;;;12.00;100.00;92980.84;2084896;28;20104;-84
2023/08/05 00:53:38;;;;;;;20.27;9.23;;;;;;;12.00;100.00;92985.47;2098264;28;20024;-84
2023/08/05 00:54:40;;;;;;;18.83;9.45;;;;;;;12.02;100.00;92983.09;2083112;28;20032;-82
2023/08/05 00:55:41;;;;;;;15.02;9.40;;;;;;;12.06;100.00;92981.06;2081389;28;20022;-83
2023/08/05 00:56:44;;;;;;;17.15;9.95;;;;;;;11.99;100.00;92981.28;2103090;28;20481;-84
2023/08/05 00:57:47;;;;;;;17.92;9.48;;;;;;;11.96;100.00;92990.94;2100908;28;20470;-83
2023/08/05 00:58:48;;;;;;;16.55;9.55;;;;;;;12.00;100.00;92996.19;2097867;28;20035;-84
2023/08/05 00:59:49;;;;;;;17.35;9.15;;;;;;;11.97;100.00;92984.38;2085356;28;20032;-84
2023/08/05 01:00:50;;;;;;;17.55;9.00;;;;;;;11.94;100.00;92984.47;2093412;28;20093;-83
2023/08/05 01:01:51;;;;;;;21.15;9.82;;;;;;;11.90;100.00;92989.97;2090447;28;20029;-84
2023/08/05 01:02:52;;;;;;;13.85;8.52;;;;;;;11.89;100.00;92985.00;2083100;28;20026;-84
2023/08/05 01:03:53;;;;;;;19.40;8.52;;;;;;;11.90;100.00;92981.19;2096020;28;20069;-84
2023/08/05 01:04:54;;;;;;;15.55;8.68;;;;;;;11.87;100.00;92982.03;2081471;28;20021;-83
2023/08/05 01:05:56;;;;;;;14.30;9.02;;;;;;;11.98;100.00;92982.44;2084100;28;20029;-83
2023/08/05 01:06:58;;;;;;;18.23;8.93;;;;;;;11.95;100.00;92978.72;2097273;28;20036;-84
2023/08/05 01:08:00;;;;;;;14.20;8.68;;;;;;;12.18;100.00;92976.91;2091365;28;20162;-84
2023/08/05 01:09:01;;;;;;;18.23;8.88;;;;;;;12.25;100.00;92979.38;2097255;28;20098;-84
2023/08/05 01:10:04;;;;;;;16.05;8.82;;;;;;;12.10;100.00;92982.47;2089789;28;20024;-84
2023/08/05 01:11:05;;;;;;;13.00;8.20;;;;;;;11.88;100.00;92983.53;2088973;28;20066;-84
2023/08/05 01:12:06;;;;;;;16.25;8.55;;;;;;;11.85;100.00;92977.06;2073156;28;20032;-84
2023/08/05 01:13:07;;;;;;;12.18;8.05;;;;;;;11.81;100.00;92976.44;2080997;28;20090;-83
2023/08/05 01:14:08;;;;;;;20.20;8.82;;;;;;;11.93;100.00;92977.63;2083895;28;20029;-83
2023/08/05 01:15:09;;;;;;;12.05;7.70;;;;;;;12.02;100.00;92981.16;2089701;28;20025;-83
2023/08/05 01:16:10;;;;;;;18.50;8.63;;;;;;;12.02;100.00;92973.13;2081116;28;20074;-83
2023/08/05 01:17:11;;;;;;;14.98;8.20;;;;;;;11.95;100.00;92970.69;2078680;28;20025;-84
2023/08/05 01:18:16;;;;;;;14.23;7.40;;;;;;;12.07;100.00;92975.31;2081012;28;20243;-82
2023/08/05 01:19:23;;;;;;;14.75;7.55;;;;;;;11.94;100.00;92979.13;2089545;28;20103;-83
2023/08/05 01:20:32;;;;;;;12.52;7.75;;;;;;;11.87;100.00;92974.00;2091413;28;20494;-84
2023/08/05 01:21:48;;;;;;;11.70;7.50;;;;;;;11.73;100.00;92967.09;2092036;28;20029;-83
2023/08/05 01:22:54;;;;;;;14.50;7.55;;;;;;;11.65;100.00;92963.09;2093288;28;20044;-83
2023/08/05 01:24:14;;;;;;;11.73;7.70;;;;;;;11.84;100.00;92967.56;2098399;28;20377;-83
2023/08/05 01:25:24;;;;;;;;;;;;;;;11.96;100.00;92971.44;2095471;28;20060;-84
2023/08/05 01:26:25;;;;;;;;;;;;;;;11.83;100.00;92968.72;2090825;28;19944;-84
2023/08/05 01:27:27;;;;;;;10.20;6.30;;;;;;;11.74;100.00;92965.91;2091749;28;20364;-82
2023/08/05 01:28:28;;;;;;;10.20;6.30;;;;;;;11.73;100.00;92973.19;2106470;28;20031;-83
2023/08/05 01:29:29;;;;;;;14.23;6.85;;;;;;;11.68;100.00;92970.31;2097579;28;20021;-84
2023/08/05 01:30:32;;;;;;;10.15;6.47;;;;;;;11.63;100.00;92962.78;2097930;28;20101;-83
2023/08/05 01:31:34;;;;;;;13.05;6.57;;;;;;;11.53;100.00;92976.03;2083788;28;20030;-84
2023/08/05 01:32:37;;;;;;;13.52;7.03;;;;;;;11.53;100.00;92976.03;2107953;28;20028;-84
2023/08/05 01:33:38;;;;;;;10.48;6.30;;;;;;;11.51;100.00;92980.31;2105798;28;20016;-83
2023/08/05 01:34:40;;;;;;;9.05;6.63;;;;;;;11.55;100.00;92978.31;2094196;28;20206;-83
2023/08/05 01:35:47;;;;;;;12.43;6.40;;;;;;;11.48;100.00;92978.50;2089206;28;20065;-83
2023/08/05 01:36:48;;;;;;;12.38;7.15;;;;;;;11.47;100.00;92977.75;2098629;28;20036;-84
2023/08/05 01:37:50;;;;;;;10.52;6.70;;;;;;;11.47;100.00;92983.09;2097453;28;20032;-83
2023/08/05 01:38:51;;;;;;;9.95;6.57;;;;;;;11.40;100.00;92977.91;2087818;28;20397;-84
2023/08/05 01:39:52;;;;;;;11.73;7.22;;;;;;;11.47;100.00;92983.09;2103044;28;20059;-84
2023/08/05 01:40:53;;;;;;;12.18;6.80;;;;;;;11.60;100.00;92989.22;2105745;28;20035;-83
2023/08/05 01:41:54;;;;;;;8.73;6.15;;;;;;;11.55;100.00;92980.97;2097589;28;20055;-84
2023/08/05 01:42:58;;;;;;;12.18;6.55;;;;;;;11.46;100.00;92986.94;2088994;28;20043;-85
2023/08/05 01:43:59;;;;;;;10.40;6.40;;;;;;;11.56;100.00;92990.50;2090112;28;20033;-84
2023/08/05 01:45:00;;;;;;;11.52;6.68;;;;;;;11.59;100.00;92987.00;2089270;28;20144;-84
2023/08/05 01:46:01;;;;;;;10.68;6.78;;;;;;;11.56;100.00;92985.91;2097925;28;20027;-84
2023/08/05 01:47:02;;;;;;;8.13;6.68;;;;;;;11.49;100.00;92986.09;2097646;28;20044;-83
2023/08/05 01:48:04;;;;;;;10.85;6.85;;;;;;;11.56;100.00;92979.78;2087044;28;20021;-83
2023/08/05 01:49:04;;;;;;;11.68;7.18;;;;;;;11.62;100.00;92978.09;2088920;28;20498;-83
2023/08/05 01:50:06;;;;;;;9.38;6.28;;;;;;;11.59;100.00;92985.06;2084264;28;20144;-84
2023/08/05 01:51:07;;;;;;;9.10;6.55;;;;;;;11.62;100.00;92982.69;2091677;28;20023;-84
2023/08/05 01:52:08;;;;;;;14.50;6.78;;;;;;;11.66;100.00;92981.41;2096872;28;20028;-83
2023/08/05 01:53:08;;;;;;;9.75;6.22;;;;;;;11.49;100.00;92979.97;2101746;28;20020;-84
2023/08/05 01:54:09;;;;;;;11.48;6.50;;;;;;;11.44;100.00;92988.53;2106984;28;20028;-84
2023/08/05 01:55:10;;;;;;;10.23;6.60;;;;;;;11.34;100.00;92980.38;2105781;28;20056;-86
2023/08/05 01:56:11;;;;;;;12.13;6.75;;;;;;;11.41;100.00;92982.09;2091450;28;20060;-85
2023/08/05 01:57:12;;;;;;;7.88;6.53;;;;;;;11.47;100.00;92982.34;2088786;28;20025;-83
2023/08/05 01:58:13;;;;;;;11.32;6.43;;;;;;;11.40;100.00;92977.91;2096220;28;20028;-83
2023/08/05 01:59:14;;;;;;;11.25;6.60;;;;;;;11.46;100.00;92986.94;2089566;28;20024;-84
2023/08/05 02:00:15;;;;;;;9.63;6.28;;;;;;;11.51;100.00;92977.66;2097700;28;20543;-84
2023/08/05 02:01:16;;;;;;;10.63;6.20;;;;;;;11.50;100.00;92979.56;2103238;28;20134;-84
2023/08/05 02:02:17;;;;;;;9.20;6.68;;;;;;;11.55;100.00;92976.38;2114352;28;20497;-83
2023/08/05 02:03:19;;;;;;;11.25;6.53;;;;;;;11.50;100.00;92971.53;2088756;28;20539;-83
2023/08/05 02:04:20;;;;;;;11.20;6.43;;;;;;;11.53;100.00;92969.94;2097512;28;20813;-83
2023/08/05 02:05:21;;;;;;;8.00;6.20;;;;;;;11.43;100.00;92969.06;2097506;28;20091;-84
2023/08/05 02:06:22;;;;;;;10.75;7.25;;;;;;;11.38;100.00;92974.94;2097015;28;20020;-83
2023/08/05 02:07:23;;;;;;;10.23;6.50;;;;;;;11.53;100.00;92967.25;2088920;28;20053;-85
2023/08/05 02:08:23;;;;;;;11.45;6.57;;;;;;;11.57;100.00;92971.34;2080920;28;20036;-86
2023/08/05 02:09:24;;;;;;;8.15;6.15;;;;;;;11.55;100.00;92976.38;2096076;28;20020;-83
2023/08/05 02:10:31;;;;;;;9.32;6.35;;;;;;;11.39;100.00;92979.09;2106767;28;20111;-82
2023/08/05 02:11:32;;;;;;;9.20;6.45;;;;;;;11.54;100.00;92979.47;2105226;28;20032;-84
2023/08/05 02:12:33;;;;;;;7.97;6.13;;;;;;;11.44;100.00;92977.84;2097452;28;20509;-84
2023/08/05 02:13:34;;;;;;;9.93;6.35;;;;;;;11.36;100.00;92977.25;2097161;28;20016;-84
2023/08/05 02:14:35;;;;;;;11.23;6.32;;;;;;;11.41;100.00;92984.78;2096106;28;20032;-84
2023/08/05 02:15:36;;;;;;;8.07;6.10;;;;;;;11.37;100.00;92983.38;2097259;28;20137;-84
2023/08/05 02:16:37;;;;;;;9.50;6.25;;;;;;;11.30;100.00;92981.66;2088596;28;20021;-84
2023/08/05 02:17:38;;;;;;;8.73;6.00;;;;;;;11.41;100.00;92978.66;2094635;28;20505;-85
2023/08/05 02:18:39;;;;;;;9.60;6.35;;;;;;;11.44;100.00;92983.94;2089217;28;20033;-84
2023/08/05 02:19:40;;;;;;;9.70;6.00;;;;;;;11.43;100.00;92981.69;2097215;28;20055;-83
2023/08/05 02:22:21;;;;;;;7.30;6.03;;;;;;;11.28;100.00;92971.38;2137713;27;20487;-80
2023/08/05 02:23:22;;;;;;;9.20;6.00;;;;;;;11.26;100.00;92964.94;2118542;28;20100;-83
2023/08/05 02:24:23;;;;;;;7.45;6.25;;;;;;;11.26;100.00;92967.59;2098827;28;20024;-83
2023/08/05 02:25:24;;;;;;;9.02;6.05;;;;;;;11.25;100.00;92972.22;2104272;28;20051;-84
2023/08/05 02:26:25;;;;;;;9.63;5.70;;;;;;;11.26;100.00;92973.72;2112339;27;20122;-85
2023/08/05 02:27:26;;;;;;;8.27;5.90;;;;;;;11.30;100.00;92970.94;2119793;28;20019;-83
2023/08/05 02:28:27;;;;;;;9.68;5.97;;;;;;;11.23;100.00;92969.19;2104209;28;20020;-85
2023/08/05 02:29:28;;;;;;;7.22;5.90;;;;;;;11.23;100.00;92976.47;2112299;28;20028;-83
2023/08/05 02:30:29;;;;;;;8.30;6.03;;;;;;;11.21;100.00;92978.84;2113301;28;20114;-84
2023/08/05 02:31:31;;;;;;;7.95;5.97;;;;;;;11.23;100.00;92969.19;2119368;28;20027;-82
2023/08/05 02:32:32;;;;;;;7.43;6.00;;;;;;;11.24;100.00;92972.66;2120208;28;20029;-82
2023/08/05 02:33:33;;;;;;;8.70;6.05;;;;;;;11.23;100.00;92969.19;2112350;28;20316;-84
2023/08/05 02:34:35;;;;;;;8.93;5.93;;;;;;;11.26;100.00;92971.03;2110732;28;20027;-83
2023/08/05 02:35:36;;;;;;;8.70;6.22;;;;;;;11.19;100.00;92973.13;2112680;28;20073;-83
2023/08/05 02:36:37;;;;;;;7.40;6.03;;;;;;;11.09;100.00;92966.91;2120540;28;20023;-83
2023/08/05 02:37:38;;;;;;;7.68;5.75;;;;;;;11.08;100.00;92971.50;2112435;27;20035;-84
2023/08/05 02:38:39;;;;;;;7.20;5.50;;;;;;;11.09;100.00;92970.31;2111928;28;20031;-84
2023/08/05 02:39:40;;;;;;;8.00;6.00;;;;;;;11.18;100.00;92966.28;2109474;28;20376;-83
2023/08/05 02:40:41;;;;;;;6.90;5.53;;;;;;;11.23;100.00;92966.50;2112687;28;20426;-83
2023/08/05 02:41:42;;;;;;;7.80;6.03;;;;;;;11.29;100.00;92962.16;2105960;28;20024;-83
2023/08/05 02:42:45;;;;;;;11.20;5.70;;;;;;;11.26;100.00;92956.91;2114034;28;20453;-83
2023/08/05 02:43:46;;;;;;;7.68;5.70;;;;;;;11.23;100.00;92952.38;2121349;28;20026;-83
2023/08/05 02:44:47;;;;;;;9.63;5.90;;;;;;;11.16;100.00;92947.25;2103541;28;20070;-84
2023/08/05 02:45:57;;;;;;;8.27;4.88;;;;;;;11.24;100.00;92946.63;2093732;28;20078;-83
2023/08/05 02:46:58;;;;;;;6.32;5.13;;;;;;;11.23;100.00;92949.72;2098511;28;20554;-83
2023/08/05 02:47:59;;;;;;;6.50;5.43;;;;;;;11.22;100.00;92956.25;2095367;28;20052;-83
2023/08/05 02:49:00;;;;;;;9.60;5.70;;;;;;;11.20;100.00;92951.31;2104346;28;20032;-85
2023/08/05 02:50:09;;;;;;;7.22;6.07;;;;;;;11.36;100.00;92955.84;2103655;28;20036;-83
2023/08/05 02:51:10;;;;;;;8.38;5.93;;;;;;;11.21;100.00;92950.16;2097570;28;20029;-82
2023/08/05 02:52:11;;;;;;;13.10;6.20;;;;;;;11.19;100.00;92952.47;2095785;28;20612;-85
2023/08/05 02:53:13;;;;;;;9.40;5.97;;;;;;;11.23;100.00;92949.72;2103581;28;20031;-84
2023/08/05 02:54:16;;;;;;;9.85;6.50;;;;;;;11.06;100.00;92957.03;2110536;28;20361;-85
2023/08/05 02:55:17;;;;;;;7.47;5.82;;;;;;;11.21;100.00;92952.06;2110384;28;20578;-84
2023/08/05 02:56:18;;;;;;;8.52;6.60;;;;;;;11.24;100.00;92948.56;2102296;28;20025;-84
2023/08/05 02:57:19;;;;;;;8.20;6.85;;;;;;;11.27;100.00;92948.44;2106438;28;20036;-84
2023/08/05 02:58:22;;;;;;;9.45;6.57;;;;;;;11.52;100.00;92941.66;2112122;28;20024;-83
2023/08/05 02:59:23;;;;;;;12.48;6.85;;;;;;;11.58;100.00;92939.97;2103783;28;20020;-85
2023/08/05 03:00:24;;;;;;;7.53;5.80;;;;;;;11.59;100.00;92938.81;2099807;28;20027;-83
2023/08/05 03:01:25;;;;;;;8.85;5.90;;;;;;;11.79;100.00;92938.59;2100436;28;20021;-83
2023/08/05 03:02:26;;;;;;;8.43;5.85;;;;;;;11.67;100.00;92932.03;2095052;28;20021;-84
2023/08/05 03:03:27;;;;;;;9.10;6.20;;;;;;;11.59;100.00;92936.88;2104119;28;20077;-81
2023/08/05 03:04:28;;;;;;;9.75;5.90;;;;;;;11.71;100.00;92929.25;2093770;28;20048;-83
2023/08/05 03:05:29;;;;;;;9.10;5.75;;;;;;;11.65;100.00;92926.38;2096056;28;20028;-83
2023/08/05 03:06:30;;;;;;;8.40;6.03;;;;;;;11.48;100.00;92930.31;2099644;28;20063;-84
2023/08/05 03:07:31;;;;;;;8.43;6.22;;;;;;;11.45;100.00;92926.53;2104191;28;20091;-85
2023/08/05 03:08:32;;;;;;;7.10;6.38;;;;;;;11.54;100.00;92929.34;2102912;28;20028;-84
2023/08/05 03:09:33;;;;;;;7.90;5.88;;;;;;;11.42;100.00;92934.69;2103733;28;20024;-83
2023/08/05 03:10:34;;;;;;;10.30;5.93;;;;;;;11.40;100.00;92927.06;2109753;28;20111;-84
2023/08/05 03:11:38;;;;;;;7.25;6.20;;;;;;;11.40;100.00;92939.72;2103687;28;20017;-84
2023/08/05 03:12:39;;;;;;;10.02;5.82;;;;;;;11.45;100.00;92941.84;2095831;28;20526;-83
2023/08/05 03:13:40;;;;;;;6.35;5.75;;;;;;;11.35;100.00;92944.41;2103766;27;20039;-84
2023/08/05 03:14:41;;;;;;;9.52;6.18;;;;;;;11.49;100.00;92942.50;2109730;28;20073;-84
2023/08/05 03:15:42;;;;;;;10.23;6.13;;;;;;;11.43;100.00;92950.31;2104133;28;20043;-84
2023/08/05 03:16:44;;;;;;;6.65;5.20;;;;;;;11.40;100.00;92951.16;2098613;28;20781;-83
2023/08/05 03:17:46;;;;;;;6.45;5.68;;;;;;;11.30;100.00;92946.84;2104001;28;20032;-84
2023/08/05 03:18:47;;;;;;;8.73;6.30;;;;;;;11.20;100.00;92954.00;2103701;28;20025;-84
2023/08/05 03:19:52;;;;;;;8.00;6.07;;;;;;;11.17;100.00;92952.16;2103051;28;20020;-84
2023/08/05 03:20:53;;;;;;;6.45;5.75;;;;;;;11.15;100.00;92951.06;2117862;28;20028;-84
2023/08/05 03:21:54;;;;;;;8.15;5.55;;;;;;;11.10;100.00;92953.09;2118723;28;20028;-84
2023/08/05 03:22:55;;;;;;;8.93;6.70;;;;;;;11.16;100.00;92956.03;2104742;28;20050;-83
2023/08/05 03:23:56;;;;;;;8.45;5.82;;;;;;;11.08;100.00;92955.44;2115387;28;20048;-82
2023/08/05 03:24:59;;;;;;;7.70;5.75;;;;;;;11.07;100.00;92959.31;2099091;28;20016;-83
2023/08/05 03:26:00;;;;;;;7.63;5.72;;;;;;;11.07;100.00;92953.97;2095818;28;20417;-83
2023/08/05 03:27:01;;;;;;;7.68;6.38;;;;;;;11.04;100.00;92954.78;2097230;28;20020;-84
2023/08/05 03:28:02;;;;;;;9.10;6.07;;;;;;;11.12;100.00;92955.38;2094310;28;20025;-83
2023/08/05 03:29:03;;;;;;;8.68;6.20;;;;;;;11.05;100.00;92956.28;2095179;28;20025;-82
2023/08/05 03:30:05;;;;;;;7.90;6.07;;;;;;;11.05;100.00;92960.88;2097816;28;20020;-83
2023/08/05 03:31:06;;;;;;;7.70;6.75;;;;;;;11.04;100.00;92960.13;2103587;28;20032;-84
2023/08/05 03:32:07;;;;;;;13.02;7.07;;;;;;;11.05;100.00;92958.22;2095235;28;20469;-84
2023/08/05 03:33:08;;;;;;;9.98;6.82;;;;;;;11.00;100.00;92961.41;2093735;28;20083;-84
2023/08/05 03:34:09;;;;;;;8.80;6.07;;;;;;;10.95;100.00;92962.66;2106650;28;20024;-83
2023/08/05 03:35:10;;;;;;;13.63;6.50;;;;;;;10.92;100.00;92968.09;2105553;28;20023;-83
2023/08/05 03:36:11;;;;;;;8.10;6.78;;;;;;;10.99;100.00;92965.25;2098138;28;20437;-84
2023/08/05 03:37:12;;;;;;;9.50;6.30;;;;;;;11.00;100.00;92969.44;2103895;28;20020;-84
2023/08/05 03:38:13;;;;;;;10.10;6.93;;;;;;;10.91;100.00;92969.28;2097800;28;20076;-85
2023/08/05 03:39:14;;;;;;;10.38;6.43;;;;;;;10.87;100.00;92963.28;2081992;28;20128;-83
2023/08/05 03:40:15;;;;;;;11.63;6.63;;;;;;;10.81;100.00;92966.47;2097977;28;20082;-83
2023/08/05 03:41:16;;;;;;;8.57;6.43;;;;;;;10.75;100.00;92973.47;2087911;28;20649;-82
2023/08/05 03:42:17;;;;;;;7.78;6.63;;;;;;;10.84;100.00;92970.19;2106176;28;20038;-84
2023/08/05 03:43:18;;;;;;;7.82;6.38;;;;;;;10.84;100.00;92973.66;2109367;28;20024;-84
2023/08/05 03:44:19;;;;;;;7.70;6.57;;;;;;;10.83;100.00;92976.72;2104858;28;20024;-84
2023/08/05 03:45:20;;;;;;;10.02;6.57;;;;;;;10.83;100.00;92968.72;2104666;28;20021;-84
2023/08/05 03:46:21;;;;;;;7.68;6.47;;;;;;;10.82;100.00;92970.63;2090061;28;20607;-85
2023/08/05 03:47:22;;;;;;;13.70;7.78;;;;;;;10.76;100.00;92979.59;2088478;28;20021;-86
2023/08/05 03:48:24;;;;;;;8.70;7.20;;;;;;;10.87;100.00;92976.63;2098084;28;20035;-83
2023/08/05 03:49:24;;;;;;;8.20;7.40;;;;;;;10.84;100.00;92975.53;2098522;28;20119;-83
2023/08/05 03:50:28;;;;;;;8.50;7.32;;;;;;;10.86;100.00;92981.25;2098060;28;20020;-83
2023/08/05 03:51:29;;;;;;;12.48;7.28;;;;;;;10.89;100.00;92977.75;2098571;28;20118;-83
2023/08/05 03:52:30;;;;;;;12.52;7.68;;;;;;;10.91;100.00;92975.38;2097773;28;20020;-83
2023/08/05 03:53:31;;;;;;;8.57;6.82;;;;;;;10.88;100.00;92968.19;2086451;28;20359;-84
2023/08/05 03:54:32;;;;;;;11.77;6.93;;;;;;;10.77;100.00;92973.06;2090037;28;20032;-84
2023/08/05 03:55:33;;;;;;;9.40;7.22;;;;;;;10.82;100.00;92981.31;2089621;28;20515;-84
2023/08/05 03:56:34;;;;;;;12.25;7.85;;;;;;;10.80;100.00;92977.59;2097788;28;20024;-83
2023/08/05 03:57:35;;;;;;;7.95;7.10;;;;;;;10.84;100.00;92986.25;2098282;28;20035;-84
2023/08/05 03:58:36;;;;;;;10.50;7.70;;;;;;;10.88;100.00;92991.50;2096441;28;20409;-83
2023/08/05 03:59:37;;;;;;;14.75;7.28;;;;;;;11.06;100.00;92978.44;2089804;28;20047;-85
2023/08/05 04:00:42;;;;;;;9.55;7.47;;;;;;;11.32;100.00;92992.66;2085172;28;20018;-83
2023/08/05 04:01:43;;;;;;;11.90;6.72;;;;;;;11.32;100.00;92985.38;2086404;28;20021;-84
2023/08/05 04:02:44;;;;;;;7.85;6.88;;;;;;;11.32;100.00;92990.72;2098250;28;20028;-84
2023/08/05 04:03:45;;;;;;;8.57;6.82;;;;;;;11.25;100.00;92988.25;2084832;28;20075;-84
2023/08/05 04:04:46;;;;;;;9.23;6.97;;;;;;;11.16;100.00;92984.69;2081622;28;20452;-84
2023/08/05 04:05:47;;;;;;;8.90;6.75;;;;;;;11.23;100.00;92989.84;2105556;28;20028;-85
2023/08/05 04:06:48;;;;;;;11.23;7.47;;;;;;;11.23;100.00;92990.59;2101529;28;20036;-85
2023/08/05 04:07:49;;;;;;;9.80;6.85;;;;;;;11.40;100.00;92988.63;2095541;28;20028;-84
2023/08/05 04:08:53;;;;;;;10.70;6.88;;;;;;;11.48;100.00;92989.19;2106066;28;20024;-83
2023/08/05 04:09:54;;;;;;;9.25;7.10;;;;;;;11.45;100.00;92988.09;2114306;28;20523;-84
2023/08/05 04:10:56;;;;;;;8.00;7.20;;;;;;;11.35;100.00;92983.78;2106419;28;20596;-84
2023/08/05 04:12:00;;;;;;;8.88;6.82;;;;;;;11.20;100.00;92983.44;2089278;28;20024;-84
2023/08/05 04:13:03;;;;;;;9.88;7.32;;;;;;;11.12;100.00;92984.03;2098879;28;20094;-85
2023/08/05 04:14:05;;;;;;;11.23;7.30;;;;;;;11.09;100.00;92978.34;2105167;28;20032;-83
2023/08/05 04:15:08;;;;;;;8.00;7.03;;;;;;;11.12;100.00;92979.44;2104094;28;20030;-85
2023/08/05 04:16:10;;;;;;;7.82;6.35;;;;;;;11.10;100.00;92977.16;2087322;28;20091;-84
2023/08/05 04:17:14;;;;;;;8.80;6.75;;;;;;;11.21;100.00;92976.91;2097284;28;20020;-83
2023/08/05 04:18:15;;;;;;;7.53;6.82;;;;;;;11.16;100.00;92984.69;2097011;28;20036;-85
2023/08/05 04:19:17;;;;;;;10.55;6.75;;;;;;;11.09;100.00;92978.34;2098115;28;20384;-84
2023/08/05 04:20:18;;;;;;;7.15;5.95;;;;;;;11.14;100.00;92979.00;2098914;28;20119;-83
2023/08/05 04:21:23;;;;;;;6.88;6.18;;;;;;;11.23;100.00;92981.81;2096115;28;20107;-83
2023/08/05 04:22:26;;;;;;;7.90;6.93;;;;;;;11.24;100.00;92983.34;2098448;28;20037;-83
2023/08/05 04:23:30;;;;;;;9.32;7.38;;;;;;;11.27;100.00;92980.56;2096436;28;20025;-83
2023/08/05 04:24:32;;;;;;;8.02;6.85;;;;;;;11.20;100.00;92974.66;2106853;28;20054;-85
2023/08/05 04:25:34;;;;;;;7.47;6.65;;;;;;;11.19;100.00;92973.13;2113601;28;20376;-84
2023/08/05 04:26:38;;;;;;;7.53;6.55;;;;;;;11.39;100.00;92981.03;2115527;27;20544;-84
2023/08/05 04:27:39;;;;;;;7.65;6.20;;;;;;;11.43;100.00;92979.75;2107321;28;20051;-84
2023/08/05 04:28:40;;;;;;;7.93;6.00;;;;;;;11.30;100.00;92973.63;2097561;28;20052;-83
2023/08/05 04:29:42;;;;;;;8.75;6.70;;;;;;;11.29;100.00;92974.78;2098107;28;20032;-83
2023/08/05 04:30:43;;;;;;;9.93;6.78;;;;;;;11.30;100.00;92968.25;2097650;28;20020;-84
2023/08/05 04:31:48;;;;;;;8.90;6.50;;;;;;;11.18;100.00;92974.31;2098206;28;20028;-84
2023/08/05 04:32:50;;;;;;;7.07;6.18;;;;;;;11.23;100.00;92979.16;2106391;28;20027;-83
2023/08/05 04:33:51;;;;;;;7.20;6.28;;;;;;;11.26;100.00;92986.34;2103100;28;20656;-84
2023/08/05 04:34:52;;;;;;;7.63;6.65;;;;;;;11.33;100.00;92983.47;2105497;28;20064;-85
2023/08/05 04:35:54;;;;;;;9.25;6.88;;;;;;;11.19;100.00;92983.84;2105644;28;20028;-84
2023/08/05 04:36:55;;;;;;;9.38;6.60;;;;;;;11.35;100.00;92981.13;2097485;28;20020;-85
2023/08/05 04:37:56;;;;;;;10.77;6.47;;;;;;;11.34;100.00;92984.97;2106068;28;20118;-84
2023/08/05 04:38:59;;;;;;;10.45;6.55;;;;;;;11.22;100.00;92993.69;2105603;28;20024;-83
2023/08/05 04:40:00;;;;;;;9.95;6.65;;;;;;;11.36;100.00;92987.97;2109559;28;20472;-84
2023/08/05 04:41:01;;;;;;;8.95;6.60;;;;;;;11.36;100.00;92985.28;2101681;28;20108;-82
2023/08/05 04:42:02;;;;;;;10.18;6.53;;;;;;;11.22;100.00;92983.00;2100103;28;20036;-84
2023/08/05 04:43:03;;;;;;;7.15;6.45;;;;;;;11.17;100.00;92986.19;2105357;28;20024;-85
2023/08/05 04:44:05;;;;;;;9.75;6.50;;;;;;;11.15;100.00;92988.53;2097286;28;20020;-85
2023/08/05 04:45:07;;;;;;;9.27;7.50;;;;;;;11.49;100.00;92985.34;2081908;28;20036;-84
2023/08/05 04:46:11;;;;;;;10.48;6.95;;;;;;;11.31;100.00;92994.59;2097621;28;20035;-84
2023/08/05 04:47:12;;;;;;;8.98;6.72;;;;;;;11.42;100.00;92980.94;2100313;28;20081;-83